createdAt,value
2023-05-20T00:01:55.064Z,101070.88
2023-05-20T00:04:22.474Z,101069.28
2023-05-20T00:06:50.221Z,101070.34
2023-05-20T00:09:19.635Z,101069.69
2023-05-20T00:11:47.207Z,101066.34
2023-05-20T00:14:14.767Z,101060.28
2023-05-20T00:16:41.900Z,101071.94
2023-05-20T00:19:10.331Z,101070.31
2023-05-20T00:21:37.613Z,101065.03
2023-05-20T00:24:06.891Z,101084.75
2023-05-20T00:26:34.050Z,101067.94
2023-05-20T00:29:04.857Z,101071.59
2023-05-20T00:31:31.958Z,101075.25
2023-05-20T00:34:00.036Z,101067.25
2023-05-20T00:36:27.575Z,101070.09
2023-05-20T00:38:54.889Z,101061.25
2023-05-20T00:41:24.434Z,101065.88
2023-05-20T00:43:55.817Z,101064.22
2023-05-20T00:46:24.372Z,101067.00
2023-05-20T00:48:51.968Z,101065.50
2023-05-20T00:51:19.105Z,101059.34
2023-05-20T00:53:46.601Z,101071.28
2023-05-20T00:56:14.413Z,101060.53
2023-05-20T00:58:41.901Z,101057.81
2023-05-20T01:01:09.020Z,101063.41
2023-05-20T01:03:36.579Z,101066.19
2023-05-20T01:06:03.937Z,101058.00
2023-05-20T01:08:32.446Z,101057.97
2023-05-20T01:11:26.792Z,101052.44
2023-05-20T01:14:01.602Z,101062.16
2023-05-20T01:16:30.873Z,101058.59
2023-05-20T01:19:01.103Z,101058.72
2023-05-20T01:21:30.817Z,101045.41
2023-05-20T01:23:58.292Z,101058.81
2023-05-20T01:26:27.313Z,101059.94
2023-05-20T01:28:54.822Z,101054.75
2023-05-20T01:31:26.292Z,101050.44
2023-05-20T01:34:00.123Z,101058.63
2023-05-20T01:36:29.293Z,101049.00
2023-05-20T01:38:58.183Z,101049.09
2023-05-20T01:41:27.460Z,101050.19
2023-05-20T01:43:56.107Z,101053.09
2023-05-20T01:46:23.316Z,101047.81
2023-05-20T01:48:50.838Z,101041.53
2023-05-20T01:51:18.030Z,101056.72
2023-05-20T01:53:46.488Z,101062.19
2023-05-20T01:56:13.583Z,101053.38
2023-05-20T01:58:43.044Z,101056.16
2023-05-20T02:01:10.119Z,101063.47
2023-05-20T02:03:37.490Z,101054.63
2023-05-20T02:06:05.660Z,101060.31
2023-05-20T02:08:32.932Z,101053.22
2023-05-20T02:11:00.170Z,101073.09
2023-05-20T02:13:27.916Z,101059.88
2023-05-20T02:15:55.126Z,101067.16
2023-05-20T02:18:22.688Z,101067.34
2023-05-20T02:20:50.868Z,101060.91
2023-05-20T02:23:18.419Z,101063.91
2023-05-20T02:25:46.161Z,101059.50
2023-05-20T02:28:13.672Z,101059.69
2023-05-20T02:30:41.242Z,101071.59
2023-05-20T02:33:10.294Z,101074.47
2023-05-20T02:35:37.381Z,101077.16
2023-05-20T02:38:04.850Z,101093.41
2023-05-20T02:40:32.783Z,101096.25
2023-05-20T02:43:01.987Z,101087.34
2023-05-20T02:45:29.074Z,101095.50
2023-05-20T02:47:57.101Z,101092.72
2023-05-20T02:50:25.554Z,101083.59
2023-05-20T02:52:52.966Z,101088.66
2023-05-20T02:55:20.270Z,101089.47
2023-05-20T02:57:47.635Z,101091.19
2023-05-20T03:00:16.823Z,101083.78
2023-05-20T03:02:44.527Z,101098.66
2023-05-20T03:05:12.700Z,101084.91
2023-05-20T03:07:40.266Z,101092.31
2023-05-20T03:10:08.782Z,101095.41
2023-05-20T03:12:37.535Z,101090.22
2023-05-20T03:15:06.608Z,101094.03
2023-05-20T03:17:34.078Z,101091.66
2023-05-20T03:20:04.245Z,101091.75
2023-05-20T03:22:31.738Z,101097.34
2023-05-20T03:25:03.677Z,101097.41
2023-05-20T03:27:31.333Z,101095.31
2023-05-20T03:30:02.908Z,101092.91
2023-05-20T03:32:32.797Z,101100.78
2023-05-20T03:35:02.719Z,101101.56
2023-05-20T03:37:32.552Z,101103.25
2023-05-20T03:39:59.601Z,101104.16
2023-05-20T03:42:35.302Z,101102.22
2023-05-20T03:45:04.572Z,101112.78
2023-05-20T03:47:33.431Z,101110.00
2023-05-20T03:50:00.372Z,101120.56
2023-05-20T03:52:27.837Z,101109.59
2023-05-20T03:55:01.530Z,101105.75
2023-05-20T03:57:32.631Z,101112.41
2023-05-20T04:00:00.132Z,101117.25
2023-05-20T04:11:54.942Z,101123.78
2023-05-20T04:14:22.123Z,101127.88
2023-05-20T04:16:50.457Z,101121.44
2023-05-20T04:19:19.800Z,101123.06
2023-05-20T04:21:47.339Z,101117.75
2023-05-20T04:24:14.732Z,101120.06
2023-05-20T04:32:23.154Z,101124.81
2023-05-20T04:35:00.027Z,101118.66
2023-05-20T04:37:27.029Z,101125.56
2023-05-20T04:39:55.057Z,101129.34
2023-05-20T04:42:22.678Z,101131.69
2023-05-20T04:44:50.500Z,101134.81
2023-05-20T04:47:17.611Z,101137.31
2023-05-20T04:49:46.014Z,101133.53
2023-05-20T04:52:13.125Z,101135.03
2023-05-20T04:54:41.254Z,101133.91
2023-05-20T04:57:09.089Z,101136.78
2023-05-20T04:59:37.580Z,101134.97
2023-05-20T05:02:05.595Z,101139.94
2023-05-20T05:04:33.626Z,101141.34
2023-05-20T05:07:00.884Z,101132.34
2023-05-20T05:09:28.398Z,101136.97
2023-05-20T05:11:55.895Z,101127.47
2023-05-20T05:14:23.902Z,101124.88
2023-05-20T05:16:54.933Z,101132.09
2023-05-20T05:19:23.528Z,101134.47
2023-05-20T05:21:51.765Z,101130.63
2023-05-20T05:24:19.505Z,101136.28
2023-05-20T05:26:46.677Z,101143.16
2023-05-20T05:29:15.106Z,101129.19
2023-05-20T05:31:42.557Z,101133.47
2023-05-20T05:34:10.110Z,101130.53
2023-05-20T05:36:40.556Z,101137.31
2023-05-20T05:39:09.950Z,101138.03
2023-05-20T05:41:40.232Z,101131.56
2023-05-20T05:44:16.686Z,101132.53
2023-05-20T05:46:43.906Z,101141.59
2023-05-20T05:49:12.420Z,101136.84
2023-05-20T05:51:39.589Z,101138.28
2023-05-20T05:54:07.953Z,101146.78
2023-05-20T05:56:39.224Z,101140.41
2023-05-20T05:59:07.488Z,101148.91
2023-05-20T06:01:34.997Z,101144.69
2023-05-20T06:04:03.229Z,101147.78
2023-05-20T06:06:39.737Z,101137.56
2023-05-20T06:09:08.972Z,101139.94
2023-05-20T06:11:37.200Z,101144.13
2023-05-20T06:14:07.178Z,101139.63
2023-05-20T06:16:35.728Z,101147.63
2023-05-20T06:19:05.746Z,101135.81
2023-05-20T06:24:31.107Z,101134.00
2023-05-20T06:33:20.330Z,101137.59
2023-05-20T06:38:58.767Z,101134.41
2023-05-20T06:41:26.812Z,101125.41
2023-05-20T06:43:57.114Z,101131.69
2023-05-20T06:46:30.345Z,101119.47
2023-05-20T06:57:55.361Z,101132.88
2023-05-20T07:00:23.191Z,101133.78
2023-05-20T07:02:56.879Z,101129.09
2023-05-20T07:05:24.664Z,101134.25
2023-05-20T07:07:52.159Z,101134.84
2023-05-20T07:10:19.368Z,101131.16
2023-05-20T07:12:46.952Z,101126.59
2023-05-20T07:15:15.370Z,101122.06
2023-05-20T07:17:42.904Z,101121.28
2023-05-20T07:20:10.476Z,101130.50
2023-05-20T07:22:37.929Z,101123.47
2023-05-20T07:25:05.812Z,101127.88
2023-05-20T07:27:33.271Z,101120.13
2023-05-20T07:30:00.450Z,101108.13
2023-05-20T07:32:28.263Z,101117.75
2023-05-20T07:34:57.997Z,101102.13
2023-05-20T07:37:25.407Z,101098.78
2023-05-20T07:39:52.509Z,101108.84
2023-05-20T07:42:20.080Z,101104.81
2023-05-20T07:44:47.200Z,101107.34
2023-05-20T07:47:15.712Z,101111.91
2023-05-20T07:49:44.540Z,101111.91
2023-05-20T07:52:12.454Z,101108.41
2023-05-20T07:54:39.753Z,101110.28
2023-05-20T07:57:07.312Z,101122.19
2023-05-20T07:59:34.524Z,101109.94
2023-05-20T08:02:02.170Z,101116.91
2023-05-20T08:04:29.614Z,101116.44
2023-05-20T08:06:58.693Z,101109.22
2023-05-20T08:09:26.030Z,101118.91
2023-05-20T08:11:53.814Z,101118.72
2023-05-20T08:14:21.055Z,101108.97
2023-05-20T08:16:48.595Z,101112.09
2023-05-20T08:19:15.802Z,101115.13
2023-05-20T08:21:44.729Z,101113.97
2023-05-20T08:27:33.409Z,101109.50
2023-05-20T08:30:01.175Z,101116.25
2023-05-20T08:32:28.437Z,101105.25
2023-05-20T08:34:56.374Z,101109.91
2023-05-20T08:40:13.739Z,101105.38
2023-05-20T08:42:44.705Z,101111.53
2023-05-20T08:45:17.765Z,101112.72
2023-05-20T08:47:45.019Z,101103.66
2023-05-20T08:50:14.114Z,101102.31
2023-05-20T08:52:46.571Z,101112.38
2023-05-20T08:55:30.379Z,101113.75
2023-05-20T08:57:58.192Z,101101.78
2023-05-20T09:00:33.900Z,101105.72
2023-05-20T09:03:04.449Z,101106.84
2023-05-20T09:05:32.405Z,101105.94
2023-05-20T09:08:12.816Z,101105.25
2023-05-20T09:10:42.004Z,101097.72
2023-05-20T09:13:12.123Z,101098.78
2023-05-20T09:15:40.561Z,101094.44
2023-05-20T09:18:09.102Z,101083.25
2023-05-20T09:20:42.126Z,101085.38
2023-05-20T09:23:10.372Z,101090.09
2023-05-20T09:25:38.072Z,101083.66
2023-05-20T09:28:07.742Z,101081.38
2023-05-20T09:30:35.508Z,101073.25
2023-05-20T09:33:05.527Z,101076.19
2023-05-20T09:35:39.420Z,101072.00
2023-05-20T09:38:09.276Z,101066.31
2023-05-20T09:40:39.002Z,101073.25
2023-05-20T09:43:08.054Z,101070.81
2023-05-20T09:45:37.594Z,101066.75
2023-05-20T09:48:13.594Z,101073.28
2023-05-20T09:50:42.847Z,101070.72
2023-05-20T09:53:12.716Z,101069.03
2023-05-20T09:55:46.510Z,101071.19
2023-05-20T10:00:59.344Z,101058.91
2023-05-20T10:03:36.117Z,101054.16
2023-05-20T10:06:10.056Z,101050.03
2023-05-20T10:08:55.744Z,101048.94
2023-05-20T10:12:02.257Z,101048.75
2023-05-20T10:14:42.296Z,101050.81
2023-05-20T10:17:37.567Z,101054.91
2023-05-20T10:20:21.829Z,101047.19
2023-05-20T10:23:00.372Z,101045.22
2023-05-20T10:28:36.720Z,101038.22
2023-05-20T10:31:18.559Z,101047.09
2023-05-20T10:34:08.124Z,101044.59
2023-05-20T10:36:35.459Z,101049.16
2023-05-20T10:39:04.987Z,101042.78
2023-05-20T10:44:27.209Z,101037.91
2023-05-20T10:47:21.094Z,101030.72
2023-05-20T10:52:39.822Z,101026.38
2023-05-20T10:55:11.362Z,101020.53
2023-05-20T10:57:38.802Z,101017.06
2023-05-20T11:00:11.169Z,101018.88
2023-05-20T11:08:27.287Z,101023.00
2023-05-20T11:10:59.790Z,101010.94
2023-05-20T11:13:27.999Z,101008.75
2023-05-20T11:16:10.332Z,101012.88
2023-05-20T11:18:42.871Z,101019.88
2023-05-20T11:21:12.335Z,101023.09
2023-05-20T11:23:46.797Z,101020.91
2023-05-20T11:26:21.164Z,101014.94
2023-05-20T11:32:00.305Z,101016.19
2023-05-20T11:34:37.817Z,101015.84
2023-05-20T11:37:09.995Z,101022.28
2023-05-20T11:39:42.024Z,101018.72
2023-05-20T11:42:09.527Z,101019.22
2023-05-20T11:44:50.138Z,101011.66
2023-05-20T11:47:25.362Z,101009.78
2023-05-20T11:49:52.910Z,101008.91
2023-05-20T11:52:20.265Z,101004.66
2023-05-20T11:54:54.357Z,100992.97
2023-05-20T11:57:21.415Z,100998.50
2023-05-20T11:59:49.704Z,100999.19
2023-05-20T12:02:16.846Z,100999.41
2023-05-20T12:04:45.950Z,100995.16
2023-05-20T12:07:17.581Z,100993.69
2023-05-20T12:09:46.599Z,100993.84
2023-05-20T12:12:14.340Z,100986.84
2023-05-20T12:14:41.705Z,100984.66
2023-05-20T12:17:08.931Z,100972.91
2023-05-20T12:19:45.782Z,100968.81
2023-05-20T12:22:13.132Z,100968.03
2023-05-20T12:24:41.291Z,100973.97
2023-05-20T12:27:09.735Z,100972.91
2023-05-20T12:29:37.844Z,100970.59
2023-05-20T12:32:08.538Z,100982.84
2023-05-20T12:34:41.959Z,100981.63
2023-05-20T12:37:09.307Z,100974.22
2023-05-20T12:39:39.403Z,100971.81
2023-05-20T12:42:07.211Z,100969.25
2023-05-20T12:44:35.241Z,100970.94
2023-05-20T12:47:03.280Z,100968.53
2023-05-20T12:49:33.970Z,100964.34
2023-05-20T12:52:11.907Z,100946.44
2023-05-20T12:54:47.177Z,100947.00
2023-05-20T12:57:14.656Z,100937.03
2023-05-20T12:59:42.234Z,100931.53
2023-05-20T13:02:10.892Z,100927.41
2023-05-20T13:04:38.425Z,100920.75
2023-05-20T13:07:08.739Z,100921.72
2023-05-20T13:09:36.392Z,100915.44
2023-05-20T13:12:06.146Z,100927.78
2023-05-20T13:14:48.955Z,100927.34
2023-05-20T13:17:17.224Z,100931.22
2023-05-20T13:19:46.604Z,100923.84
2023-05-20T13:22:14.263Z,100920.88
2023-05-20T13:24:43.935Z,100919.91
2023-05-20T13:27:12.234Z,100919.13
2023-05-20T13:29:39.539Z,100923.78
2023-05-20T13:32:07.188Z,100922.63
2023-05-20T13:34:34.619Z,100924.88
2023-05-20T13:37:02.200Z,100928.59
2023-05-20T13:39:29.829Z,100916.06
2023-05-20T13:41:59.253Z,100909.59
2023-05-20T13:44:27.716Z,100913.28
2023-05-20T13:46:56.118Z,100910.06
2023-05-20T14:13:12.981Z,100936.41
2023-05-20T14:15:40.692Z,100929.50
2023-05-20T14:18:08.561Z,100930.06
2023-05-20T14:20:43.763Z,100926.91
2023-05-20T14:23:15.641Z,100927.63
2023-05-20T14:25:47.691Z,100924.59
2023-05-20T14:31:23.171Z,100928.81
2023-05-20T14:36:59.589Z,100924.78
2023-05-20T14:45:45.038Z,100911.78
2023-05-20T14:48:15.874Z,100909.16
2023-05-20T14:56:44.622Z,100898.44
2023-05-20T15:02:08.203Z,100889.00
2023-05-20T15:07:39.536Z,100885.41
2023-05-20T15:18:55.365Z,100881.44
2023-05-20T15:21:43.436Z,100873.81
2023-05-20T15:32:23.966Z,100881.31
2023-05-20T15:34:53.257Z,100883.09
2023-05-20T15:37:21.750Z,100878.09
2023-05-20T15:42:33.734Z,100880.97
2023-05-20T15:45:04.047Z,100880.31
2023-05-20T15:47:32.404Z,100890.31
2023-05-20T15:50:03.242Z,100884.88
2023-05-20T15:52:41.929Z,100882.03
2023-05-20T15:55:30.451Z,100886.28
2023-05-20T16:03:47.113Z,100891.25
2023-05-20T16:06:18.810Z,100886.69
2023-05-20T16:09:02.203Z,100893.59
2023-05-20T16:11:33.195Z,100883.44
2023-05-20T16:14:00.649Z,100883.06
2023-05-20T16:16:52.233Z,100885.31
2023-05-20T16:19:20.227Z,100879.78
2023-05-20T16:21:47.907Z,100884.94
2023-05-20T16:24:15.896Z,100886.50
2023-05-20T16:26:43.888Z,100889.91
2023-05-20T16:29:11.255Z,100887.66
2023-05-20T16:31:39.022Z,100892.50
2023-05-20T16:34:06.790Z,100892.06
2023-05-20T16:36:34.271Z,100894.09
2023-05-20T16:39:02.725Z,100896.72
2023-05-20T16:41:31.526Z,100897.28
2023-05-20T16:43:58.808Z,100895.47
2023-05-20T16:46:29.041Z,100892.03
2023-05-20T16:48:56.504Z,100897.16
2023-05-20T16:51:24.460Z,100897.72
2023-05-20T16:53:51.537Z,100889.56
2023-05-20T16:56:23.177Z,100902.28
2023-05-20T16:58:52.811Z,100897.56
2023-05-20T17:01:23.173Z,100890.28
2023-05-20T17:03:51.612Z,100884.72
2023-05-20T17:09:04.775Z,100887.25
2023-05-20T17:11:32.563Z,100885.38
2023-05-20T17:14:00.854Z,100882.59
2023-05-20T17:16:29.259Z,100877.28
2023-05-20T17:18:58.982Z,100886.97
2023-05-20T17:21:33.455Z,100885.66
2023-05-20T17:24:02.007Z,100879.06
2023-05-20T17:26:29.913Z,100870.03
2023-05-20T17:28:57.532Z,100873.88
2023-05-20T17:31:25.409Z,100890.56
2023-05-20T17:36:36.720Z,100881.78
2023-05-20T17:39:11.250Z,100890.19
2023-05-20T17:41:38.674Z,100880.97
2023-05-20T17:44:07.547Z,100892.22
2023-05-20T17:46:35.944Z,100893.84
2023-05-20T17:49:03.525Z,100897.81
2023-05-20T17:51:32.009Z,100893.53
2023-05-20T17:54:03.837Z,100892.38
2023-05-20T17:56:31.743Z,100898.44
2023-05-20T17:58:59.154Z,100899.22
2023-05-20T18:01:27.222Z,100901.59
2023-05-20T18:03:54.562Z,100915.63
2023-05-20T18:06:23.225Z,100917.25
2023-05-20T18:08:50.656Z,100926.88
2023-05-20T18:11:19.139Z,100927.63
2023-05-20T18:13:46.467Z,100930.22
2023-05-20T18:16:15.106Z,100937.13
2023-05-20T18:18:42.283Z,100943.28
2023-05-20T18:21:10.270Z,100941.19
2023-05-20T18:23:41.213Z,100940.72
2023-05-20T18:26:09.346Z,100941.47
2023-05-20T18:28:42.033Z,100944.03
2023-05-20T18:31:09.804Z,100958.78
2023-05-20T18:33:41.196Z,100952.28
2023-05-20T18:36:09.481Z,100955.44
2023-05-20T18:38:37.509Z,100957.75
2023-05-20T18:41:06.654Z,100950.13
2023-05-20T18:43:33.826Z,100949.16
2023-05-20T18:46:01.621Z,100952.94
2023-05-20T18:48:32.634Z,100963.63
2023-05-20T18:51:00.183Z,100959.72
2023-05-20T18:53:28.092Z,100954.53
2023-05-20T18:55:57.269Z,100958.47
2023-05-20T18:58:24.446Z,100955.25
2023-05-20T19:03:44.393Z,100946.03
2023-05-20T19:06:14.766Z,100946.88
2023-05-20T19:08:43.748Z,100952.28
2023-05-20T19:11:20.341Z,100956.72
2023-05-20T19:13:47.751Z,100954.25
2023-05-20T19:16:15.852Z,100955.09
2023-05-20T19:18:43.801Z,100949.94
2023-05-20T19:21:11.855Z,100952.03
2023-05-20T19:26:45.729Z,100960.38
2023-05-20T19:29:29.877Z,100951.75
2023-05-20T19:32:00.896Z,100953.94
2023-05-20T19:34:28.447Z,100949.28
2023-05-20T19:36:58.018Z,100947.03
2023-05-20T19:39:27.477Z,100943.00
2023-05-20T19:41:54.737Z,100942.25
2023-05-20T19:44:56.209Z,100947.50
2023-05-20T19:47:23.497Z,100950.69
2023-05-20T19:50:00.419Z,100956.19
2023-05-20T19:52:29.319Z,100953.63
2023-05-20T19:54:58.423Z,100960.94
2023-05-20T19:57:26.135Z,100968.06
2023-05-20T20:00:03.463Z,100962.91
2023-05-20T20:02:32.021Z,100949.28
2023-05-20T20:05:01.305Z,100957.72
2023-05-20T20:07:29.082Z,100959.94
2023-05-20T20:09:56.610Z,100959.28
2023-05-20T20:12:23.905Z,100950.78
2023-05-20T20:14:52.293Z,100947.00
2023-05-20T20:17:20.718Z,100947.97
2023-05-20T20:19:53.507Z,100951.97
2023-05-20T20:22:20.938Z,100947.03
2023-05-20T20:24:50.183Z,100948.88
2023-05-20T20:27:19.896Z,100947.41
2023-05-20T20:29:48.832Z,100943.94
2023-05-20T20:32:17.805Z,100942.34
2023-05-20T20:34:47.971Z,100943.41
2023-05-20T20:37:19.937Z,100949.69
2023-05-20T20:39:48.625Z,100941.06
2023-05-20T20:42:17.019Z,100946.34
2023-05-20T20:44:49.487Z,100947.22
2023-05-20T20:47:17.780Z,100938.28
2023-05-20T20:49:46.464Z,100938.38
2023-05-20T20:52:19.479Z,100939.13
2023-05-20T20:54:48.415Z,100938.91
2023-05-20T20:57:17.647Z,100925.53
2023-05-20T21:02:28.777Z,100923.03
2023-05-20T21:04:59.279Z,100914.31
2023-05-20T21:07:26.334Z,100920.25
2023-05-20T21:09:55.269Z,100919.28
2023-05-20T21:12:22.740Z,100929.06
2023-05-20T21:14:50.760Z,100921.09
2023-05-20T21:17:21.161Z,100916.59
2023-05-20T21:19:51.162Z,100918.53
2023-05-20T21:22:18.256Z,100922.94
2023-05-20T21:24:47.757Z,100917.44
2023-05-20T21:27:14.975Z,100916.44
2023-05-20T21:29:45.154Z,100918.28
2023-05-20T21:32:13.599Z,100914.97
2023-05-20T21:34:43.433Z,100917.78
2023-05-20T21:37:10.720Z,100911.75
2023-05-20T21:39:41.968Z,100907.69
2023-05-20T21:42:09.041Z,100904.34
2023-05-20T21:44:40.196Z,100903.47
2023-05-20T21:47:07.501Z,100899.41
2023-05-20T21:49:34.882Z,100907.28
2023-05-20T21:52:02.202Z,100903.84
2023-05-20T21:54:29.631Z,100909.22
2023-05-20T21:56:57.066Z,100902.94
2023-05-20T21:59:24.740Z,100916.22
2023-05-20T22:01:51.919Z,100908.13
2023-05-20T22:04:19.535Z,100916.31
2023-05-20T22:06:47.449Z,100908.13
2023-05-20T22:09:14.953Z,100919.03
2023-05-20T22:11:45.267Z,100916.31
2023-05-20T22:14:16.389Z,100917.06
2023-05-20T22:16:49.418Z,100910.06
2023-05-20T22:19:18.016Z,100910.94
2023-05-20T22:21:50.765Z,100911.03
2023-05-20T22:24:19.105Z,100906.75
2023-05-20T22:26:46.211Z,100913.09
2023-05-20T22:29:14.982Z,100912.22
2023-05-20T22:31:42.627Z,100908.91
2023-05-20T22:34:10.048Z,100908.03
2023-05-20T22:36:39.723Z,100909.13
2023-05-20T22:39:07.330Z,100911.84
2023-05-20T22:41:34.657Z,100907.53
2023-05-20T22:44:02.028Z,100911.19
2023-05-20T22:46:29.385Z,100901.50
2023-05-20T22:49:01.873Z,100914.00
2023-05-20T22:51:29.529Z,100902.78
2023-05-20T22:53:58.465Z,100901.78
2023-05-20T22:56:26.076Z,100900.28
2023-05-20T22:58:54.089Z,100910.31
2023-05-20T23:01:26.757Z,100895.25
2023-05-20T23:03:54.285Z,100904.41
2023-05-20T23:06:22.804Z,100905.38
2023-05-20T23:08:51.049Z,100910.75
2023-05-20T23:11:18.075Z,100912.72
2023-05-20T23:13:45.563Z,100908.41
2023-05-20T23:16:12.704Z,100904.13
2023-05-20T23:18:41.184Z,100900.66
2023-05-20T23:21:08.408Z,100902.47
2023-05-20T23:23:36.782Z,100902.72
2023-05-20T23:26:06.365Z,100901.09
2023-05-20T23:28:34.843Z,100903.06
2023-05-20T23:31:02.074Z,100897.00
2023-05-20T23:33:29.877Z,100895.41
2023-05-20T23:35:57.085Z,100893.78
2023-05-20T23:38:24.880Z,100902.59
2023-05-20T23:40:51.903Z,100894.00
2023-05-20T23:43:19.484Z,100900.25
2023-05-20T23:45:46.890Z,100904.13
2023-05-20T23:48:14.634Z,100890.00
2023-05-20T23:50:41.783Z,100887.31
2023-05-20T23:53:09.598Z,100896.38
2023-05-20T23:55:37.052Z,100892.94
2023-05-20T23:58:04.503Z,100893.03
